Time;durP1;ratioP1;P1;durP2;ratioP2;P2;SDS_P1;SDS_P2;PMS_P1;PMS_P2;Temp;Humidity;BMP_temperature;BMP_pressure;BME280_temperature;BME280_humidity;BME280_pressure;Samples;Min_cycle;Max_cycle;Signal;HPM_P1;HPM_P2
2022/04/12 00:01:11;;;;;;;3.03;2.50;;;;;;;7.40;nan;95507.72;5004431;28;20223;-71
2022/04/12 00:03:38;;;;;;;2.65;2.45;;;;;;;7.49;nan;95504.19;5002706;28;21509;-70
2022/04/12 00:06:04;;;;;;;2.97;2.55;;;;;;;7.41;nan;95494.22;5004834;28;20698;-71
2022/04/12 00:08:31;;;;;;;2.85;2.65;;;;;;;7.28;nan;95497.75;5003263;28;20281;-72
2022/04/12 00:10:58;;;;;;;3.25;3.05;;;;;;;7.13;nan;95493.75;5006650;28;20199;-71
2022/04/12 00:13:27;;;;;;;2.40;2.30;;;;;;;7.24;nan;95506.25;5004097;28;20784;-70
2022/04/12 00:15:53;;;;;;;2.85;2.63;;;;;;;7.48;nan;95498.31;5003830;28;20277;-71
2022/04/12 00:21:04;;;;;;;5.40;2.78;;;;;;;7.60;nan;95499.00;5004912;28;20437;-70
2022/04/12 00:23:31;;;;;;;3.63;3.20;;;;;;;7.61;nan;95491.38;5005971;28;20905;-70
2022/04/12 00:25:58;;;;;;;3.72;3.42;;;;;;;7.72;nan;95493.72;5005945;28;20290;-70
2022/04/12 00:28:25;;;;;;;3.60;3.30;;;;;;;7.60;nan;95491.41;5006295;28;20290;-72
2022/04/12 00:30:53;;;;;;;7.88;3.92;;;;;;;7.57;nan;95483.88;5004929;28;20278;-70
2022/04/12 00:33:20;;;;;;;3.38;3.08;;;;;;;7.60;nan;95477.06;5005608;28;20293;-71
2022/04/12 00:35:47;;;;;;;4.15;3.70;;;;;;;7.44;nan;95476.44;5004867;28;21047;-71
2022/04/12 00:38:22;;;;;;;6.18;3.50;;;;;;;7.11;nan;95479.47;5006045;28;20208;-71
2022/04/12 00:40:50;;;;;;;5.57;3.78;;;;;;;6.75;nan;95479.06;5005506;28;20210;-70
2022/04/12 00:43:18;;;;;;;4.03;3.33;;;;;;;6.65;nan;95480.06;5005208;28;20282;-70
2022/04/12 00:45:45;;;;;;;6.45;3.60;;;;;;;6.77;nan;95482.41;5003750;28;20207;-72
2022/04/12 00:48:13;;;;;;;8.63;3.50;;;;;;;6.91;nan;95476.38;5005076;28;20207;-71
2022/04/12 00:50:42;;;;;;;3.53;3.22;;;;;;;7.06;nan;95478.69;5005180;28;20203;-70
2022/04/12 00:53:10;;;;;;;3.63;3.28;;;;;;;7.00;nan;95477.06;5003463;28;20234;-72
2022/04/12 00:55:37;;;;;;;4.88;3.72;;;;;;;6.82;nan;95475.63;4986012;28;20192;-71
2022/04/12 00:58:06;;;;;;;5.47;3.88;;;;;;;6.76;nan;95483.28;5004551;28;20294;-70
2022/04/12 01:00:34;;;;;;;4.38;3.95;;;;;;;6.92;nan;95478.06;5005844;28;20203;-71
2022/04/12 01:03:01;;;;;;;5.45;3.95;;;;;;;6.84;nan;95475.63;5007593;28;20211;-72
2022/04/12 01:05:29;;;;;;;6.07;3.88;;;;;;;6.97;nan;95471.22;5008570;28;20208;-71
2022/04/12 01:07:56;;;;;;;4.65;3.20;;;;;;;6.80;nan;95464.72;5006938;28;20203;-71
2022/04/12 01:10:23;;;;;;;4.60;3.38;;;;;;;6.86;nan;95471.38;5007418;28;21043;-72
2022/04/12 01:12:52;;;;;;;4.28;3.63;;;;;;;6.97;nan;95477.13;5009287;28;20270;-71
2022/04/12 01:15:20;;;;;;;10.90;3.83;;;;;;;6.91;nan;95471.31;5008432;28;20223;-70
2022/04/12 01:17:48;;;;;;;10.10;4.70;;;;;;;6.72;nan;95466.47;5008177;28;20195;-72
2022/04/12 01:20:17;;;;;;;4.80;4.40;;;;;;;6.83;nan;95474.78;5007292;28;21029;-72
2022/04/12 01:22:52;;;;;;;4.53;4.13;;;;;;;6.87;nan;95474.75;5007363;28;20200;-71
2022/04/12 01:25:21;;;;;;;4.65;4.07;;;;;;;6.77;nan;95474.84;5004939;28;20269;-71
2022/04/12 01:27:48;;;;;;;4.63;4.22;;;;;;;6.60;nan;95476.75;5008718;28;20213;-69
2022/04/12 01:30:15;;;;;;;5.00;4.38;;;;;;;6.42;nan;95476.97;5006045;28;20801;-70
2022/04/12 01:32:42;;;;;;;9.30;4.43;;;;;;;6.42;nan;95471.91;5006415;28;20286;-72
2022/04/12 01:35:09;;;;;;;4.72;3.67;;;;;;;6.23;nan;95473.78;5006647;28;20203;-70
2022/04/12 01:37:36;;;;;;;8.27;4.25;;;;;;;6.05;nan;95469.75;5006721;28;20375;-71
2022/04/12 01:40:05;;;;;;;6.38;3.63;;;;;;;6.01;nan;95458.00;5005900;28;20230;-70
2022/04/12 01:42:33;;;;;;;5.75;3.92;;;;;;;6.26;nan;95475.44;5007072;28;20242;-70
2022/04/12 01:45:00;;;;;;;4.68;4.10;;;;;;;6.30;nan;95474.56;5005199;28;20671;-71
2022/04/12 01:47:27;;;;;;;4.25;3.85;;;;;;;6.28;nan;95466.16;5006063;28;20192;-70
2022/04/12 01:49:53;;;;;;;4.15;3.85;;;;;;;6.35;nan;95466.09;5005389;28;20587;-71
2022/04/12 01:52:22;;;;;;;6.63;4.68;;;;;;;6.31;nan;95469.50;5007683;28;20585;-70
2022/04/12 01:54:48;;;;;;;4.75;4.35;;;;;;;6.19;nan;95461.22;5006251;28;20218;-71
2022/04/12 01:57:15;;;;;;;4.55;3.33;;;;;;;6.12;nan;95463.81;5007584;28;21733;-71
2022/04/12 01:59:43;;;;;;;4.10;3.55;;;;;;;6.10;nan;95469.72;5006208;28;20278;-70
2022/04/12 02:02:10;;;;;;;5.05;3.50;;;;;;;6.20;nan;95470.44;5005990;28;20269;-69
2022/04/12 02:04:37;;;;;;;4.07;3.67;;;;;;;5.86;nan;95450.56;5004374;28;20218;-71
2022/04/12 02:07:04;;;;;;;5.20;3.92;;;;;;;6.31;nan;95464.44;4985251;28;20683;-70
2022/04/12 02:09:31;;;;;;;9.18;3.80;;;;;;;6.36;nan;95466.91;5006988;28;20212;-71
2022/04/12 02:11:58;;;;;;;3.42;3.13;;;;;;;6.47;nan;95470.97;5006659;28;20196;-70
2022/04/12 02:14:25;;;;;;;3.35;3.05;;;;;;;6.34;nan;95456.84;5006977;28;20261;-70
2022/04/12 02:16:54;;;;;;;5.97;4.10;;;;;;;6.25;nan;95463.66;5001877;28;20208;-71
2022/04/12 02:19:21;;;;;;;5.30;3.72;;;;;;;6.03;nan;95463.03;5005220;28;20655;-70
2022/04/12 02:21:47;;;;;;;4.43;3.45;;;;;;;6.28;nan;95453.53;5003220;28;20266;-71
2022/04/12 02:24:15;;;;;;;4.03;3.63;;;;;;;6.22;nan;95453.59;5007817;28;20907;-72
2022/04/12 02:26:41;;;;;;;3.85;3.45;;;;;;;6.08;nan;95449.53;5007938;28;20209;-70
2022/04/12 02:29:08;;;;;;;3.95;3.22;;;;;;;5.64;nan;95454.97;5007162;28;20257;-72
2022/04/12 02:31:35;;;;;;;5.18;4.68;;;;;;;6.00;nan;95450.47;5006803;28;20211;-70
2022/04/12 02:34:03;;;;;;;3.45;3.15;;;;;;;6.26;nan;95455.25;5005677;28;20235;-73
2022/04/12 02:36:30;;;;;;;6.25;4.22;;;;;;;6.01;nan;95434.47;5008493;28;20204;-71
2022/04/12 02:38:56;;;;;;;5.25;3.53;;;;;;;6.24;nan;95467.03;5005607;28;20207;-70
2022/04/12 02:41:23;;;;;;;5.90;3.13;;;;;;;6.02;nan;95447.06;5006936;28;20217;-73
2022/04/12 02:43:50;;;;;;;5.07;3.30;;;;;;;6.03;nan;95463.88;5006049;28;20220;-69
2022/04/12 02:46:17;;;;;;;3.65;3.10;;;;;;;6.05;nan;95459.66;5006291;28;20216;-70
2022/04/12 02:48:44;;;;;;;4.70;3.88;;;;;;;6.29;nan;95461.09;5006061;28;20261;-70
2022/04/12 02:51:12;;;;;;;5.22;3.85;;;;;;;6.10;nan;95457.94;5005078;28;20208;-71
2022/04/12 02:53:39;;;;;;;4.93;3.67;;;;;;;6.21;nan;95457.81;5006772;28;20267;-71
2022/04/12 02:56:06;;;;;;;9.48;4.40;;;;;;;6.04;nan;95465.56;5007465;28;20204;-72
2022/04/12 02:58:32;;;;;;;6.65;4.32;;;;;;;6.14;nan;95462.09;5007230;28;20262;-71
2022/04/12 03:00:59;;;;;;;5.20;4.10;;;;;;;6.14;nan;95459.59;4989697;28;20287;-73
2022/04/12 03:03:26;;;;;;;6.50;4.65;;;;;;;6.26;nan;95465.34;5007463;28;20196;-71
2022/04/12 03:05:53;;;;;;;8.35;4.22;;;;;;;6.37;nan;95468.59;5008493;28;20776;-73
2022/04/12 03:08:22;;;;;;;7.47;4.40;;;;;;;6.27;nan;95444.28;5008045;28;20207;-73
2022/04/12 03:10:49;;;;;;;6.97;4.68;;;;;;;6.19;nan;95456.19;5006854;28;20208;-71
2022/04/12 03:13:16;;;;;;;5.95;4.75;;;;;;;6.26;nan;95465.34;5008029;28;20307;-71
2022/04/12 03:15:42;;;;;;;6.57;5.03;;;;;;;6.38;nan;95460.16;5007242;28;21239;-72
2022/04/12 03:18:10;;;;;;;8.85;4.95;;;;;;;6.14;nan;95461.25;5007491;28;20316;-71
2022/04/12 03:20:37;;;;;;;7.30;5.07;;;;;;;5.66;nan;95473.44;5007571;28;20265;-71
2022/04/12 03:23:03;;;;;;;6.10;4.50;;;;;;;5.81;nan;95457.34;5007193;28;20648;-71
2022/04/12 03:25:32;;;;;;;8.20;5.13;;;;;;;6.06;nan;95470.59;5007339;28;20750;-71
2022/04/12 03:27:58;;;;;;;6.72;5.03;;;;;;;6.23;nan;95462.84;5006914;28;20711;-71
2022/04/12 03:30:25;;;;;;;5.25;4.72;;;;;;;6.27;nan;95464.47;5006548;28;20891;-70
2022/04/12 03:32:52;;;;;;;8.45;5.18;;;;;;;6.16;nan;95478.91;5007677;28;20232;-70
2022/04/12 03:35:19;;;;;;;6.80;6.10;;;;;;;6.14;nan;95478.94;5007479;28;20667;-71
2022/04/12 03:37:46;;;;;;;8.05;6.00;;;;;;;6.23;nan;95473.78;5008160;28;20204;-72
2022/04/12 03:40:13;;;;;;;7.28;6.57;;;;;;;6.24;nan;95477.13;5006644;28;20199;-71
2022/04/12 03:42:41;;;;;;;9.02;6.47;;;;;;;6.23;nan;95480.50;5007417;28;20204;-70
2022/04/12 03:45:08;;;;;;;35.40;18.65;;;;;;;6.13;nan;95478.09;5007436;28;20693;-71
2022/04/12 03:47:35;;;;;;;13.50;8.93;;;;;;;6.01;nan;95480.72;5006683;28;21305;-71
2022/04/12 03:50:01;;;;;;;15.02;8.32;;;;;;;5.75;nan;95448.13;5006822;28;20325;-71
2022/04/12 03:52:28;;;;;;;12.50;7.40;;;;;;;5.90;nan;95474.94;5007054;28;20208;-71
2022/04/12 03:54:55;;;;;;;5.90;5.43;;;;;;;5.86;nan;95480.00;5005974;28;20204;-70
2022/04/12 03:57:24;;;;;;;22.83;11.85;;;;;;;5.90;nan;95479.16;5006650;28;20208;-71
2022/04/12 03:59:52;;;;;;;36.00;17.77;;;;;;;6.03;nan;95483.22;5007010;28;20256;-70
2022/04/12 04:02:19;;;;;;;22.33;11.05;;;;;;;5.96;nan;95477.41;5008033;28;20199;-70
2022/04/12 04:04:45;;;;;;;10.85;6.93;;;;;;;6.09;nan;95478.97;5006988;28;20667;-72
2022/04/12 04:07:13;;;;;;;10.98;7.20;;;;;;;6.16;nan;95486.50;5006871;28;20217;-72
2022/04/12 04:09:39;;;;;;;12.27;7.32;;;;;;;6.17;nan;95485.63;5007317;28;20258;-71
2022/04/12 04:12:07;;;;;;;12.20;7.35;;;;;;;6.22;nan;95488.94;5006818;28;20207;-70
2022/04/12 04:14:35;;;;;;;12.40;6.78;;;;;;;6.30;nan;95493.06;5007223;28;20223;-70
2022/04/12 04:17:03;;;;;;;14.15;7.28;;;;;;;5.89;nan;95490.94;5007297;28;20761;-70
2022/04/12 04:19:30;;;;;;;9.88;7.03;;;;;;;5.92;nan;95485.88;5007272;28;20269;-72
2022/04/12 04:21:57;;;;;;;11.13;7.65;;;;;;;6.13;nan;95494.91;5006408;28;20192;-73
2022/04/12 04:24:24;;;;;;;14.73;7.40;;;;;;;6.22;nan;95491.44;5006603;28;20630;-74
2022/04/12 04:26:55;;;;;;;15.60;6.90;;;;;;;6.39;nan;95492.97;5005967;28;20464;-75
2022/04/12 04:29:22;;;;;;;13.05;7.47;;;;;;;6.65;nan;95497.75;5006633;28;20286;-73
2022/04/12 04:31:49;;;;;;;13.77;6.95;;;;;;;7.22;nan;95484.38;5007152;28;20203;-71
2022/04/12 04:34:17;;;;;;;49.35;23.20;;;;;;;8.90;nan;95502.66;5009945;28;20227;-74
2022/04/12 04:36:44;;;;;;;36.20;17.30;;;;;;;10.60;nan;95501.22;5010685;28;20266;-72
2022/04/12 04:39:11;;;;;;;18.75;10.60;;;;;;;12.52;nan;95503.03;5010975;28;20200;-71
2022/04/12 04:41:38;;;;;;;14.73;8.18;;;;;;;13.70;nan;95499.59;5011116;28;20237;-71
2022/04/12 04:44:05;;;;;;;18.23;8.18;;;;;;;14.85;nan;95499.13;5010737;28;20199;-73
2022/04/12 04:46:32;;;;;;;12.40;7.78;;;;;;;15.16;nan;95503.72;5010981;28;20199;-71
2022/04/12 04:48:59;;;;;;;13.25;7.88;;;;;;;16.43;nan;95506.34;5010099;28;21022;-73
2022/04/12 04:51:27;;;;;;;16.73;8.05;;;;;;;17.65;nan;95501.69;5011118;28;22265;-71
2022/04/12 04:53:58;;;;;;;20.98;9.27;;;;;;;17.19;nan;95507.59;5010539;28;20580;-72
2022/04/12 04:56:25;;;;;;;20.50;8.32;;;;;;;17.27;nan;95510.63;5009355;28;20203;-72
2022/04/12 04:58:52;;;;;;;13.88;8.20;;;;;;;18.04;nan;95509.91;5010266;28;20640;-73
2022/04/12 05:01:20;;;;;;;19.92;9.20;;;;;;;18.94;nan;95496.06;5010930;28;20206;-71
2022/04/12 05:03:47;;;;;;;13.80;9.50;;;;;;;19.60;nan;95499.81;5010416;28;20212;-71
2022/04/12 05:06:14;;;;;;;15.98;9.65;;;;;;;20.29;nan;95498.88;5008638;28;20222;-70
2022/04/12 05:08:42;;;;;;;13.30;8.80;;;;;;;21.55;nan;95503.28;5011351;28;20449;-71
2022/04/12 05:11:09;;;;;;;26.20;9.90;;;;;;;22.00;nan;95509.63;5010302;28;20246;-71
2022/04/12 05:13:36;;;;;;;21.17;11.35;;;;;;;21.70;nan;95499.63;5010314;28;20309;-74
2022/04/12 05:16:03;;;;;;;19.98;11.35;;;;;;;22.68;nan;95501.16;5009283;28;20228;-71
2022/04/12 05:18:30;;;;;;;21.90;11.25;;;;;;;23.97;nan;95486.94;5009626;28;20208;-71
2022/04/12 05:20:57;;;;;;;19.50;10.77;;;;;;;24.30;nan;95497.22;5010132;28;20204;-71
2022/04/12 05:23:24;;;;;;;18.17;11.55;;;;;;;24.74;nan;95503.19;5010610;28;20196;-71
2022/04/12 05:25:53;;;;;;;21.20;14.13;;;;;;;24.17;nan;95499.16;5010262;28;20701;-71
2022/04/12 05:28:20;;;;;;;18.55;12.07;;;;;;;24.03;nan;95496.81;5010177;28;20192;-69
2022/04/12 05:30:47;;;;;;;25.00;11.55;;;;;;;24.29;nan;95498.19;5009420;28;20270;-70
2022/04/12 05:33:14;;;;;;;20.80;10.95;;;;;;;25.00;nan;95488.84;5010094;28;20203;-71
2022/04/12 05:35:40;;;;;;;20.45;10.75;;;;;;;26.63;nan;95499.84;5009327;28;20646;-71
2022/04/12 05:38:07;;;;;;;29.95;12.40;;;;;;;26.53;nan;95501.63;5009866;28;20281;-73
2022/04/12 05:40:35;;;;;;;23.35;12.13;;;;;;;25.38;nan;95495.19;5010507;28;20207;-73
2022/04/12 05:43:03;;;;;;;12.95;8.93;;;;;;;24.58;nan;95492.38;5009580;28;20222;-73
2022/04/12 05:45:30;;;;;;;14.38;8.57;;;;;;;25.73;nan;95493.03;5009022;28;20203;-72
2022/04/12 05:47:57;;;;;;;11.32;7.88;;;;;;;26.05;nan;95498.00;5009307;28;20813;-71
2022/04/12 05:50:26;;;;;;;13.35;8.80;;;;;;;26.06;nan;95493.63;5009805;28;20669;-72
2022/04/12 05:52:53;;;;;;;13.57;8.43;;;;;;;26.80;nan;95487.88;5009484;28;20203;-71
2022/04/12 05:55:22;;;;;;;12.10;8.00;;;;;;;26.87;nan;95479.38;5009777;28;20219;-72
2022/04/12 05:57:50;;;;;;;16.30;9.38;;;;;;;27.62;nan;95486.31;5008476;28;20208;-73
2022/04/12 06:00:20;;;;;;;10.77;7.68;;;;;;;27.47;nan;95492.13;5009853;28;20218;-74
2022/04/12 06:02:47;;;;;;;14.65;7.70;;;;;;;27.89;nan;95492.47;5009497;28;20225;-71
2022/04/12 06:05:14;;;;;;;14.25;8.52;;;;;;;28.14;nan;95494.38;5008976;28;20262;-70
2022/04/12 06:07:41;;;;;;;13.07;8.30;;;;;;;27.62;nan;95504.59;5008818;28;21090;-71
2022/04/12 06:10:10;;;;;;;15.80;8.40;;;;;;;27.91;nan;95495.78;5009901;28;20221;-71
2022/04/12 06:12:37;;;;;;;19.63;13.10;;;;;;;27.40;nan;95497.09;5009015;28;20293;-71
2022/04/12 06:15:04;;;;;;;9.10;7.75;;;;;;;27.14;nan;95498.69;5009621;28;20235;-71
2022/04/12 06:17:34;;;;;;;13.05;7.05;;;;;;;27.58;nan;95512.84;5007996;28;20810;-70
2022/04/12 06:20:02;;;;;;;14.55;7.43;;;;;;;27.24;nan;95515.13;5009316;28;20273;-71
2022/04/12 06:22:29;;;;;;;9.43;6.88;;;;;;;27.15;nan;95523.81;5008106;28;20319;-72
2022/04/12 06:24:56;;;;;;;6.50;6.00;;;;;;;28.56;nan;95512.13;5009129;28;20675;-73
2022/04/12 06:27:33;;;;;;;10.73;7.15;;;;;;;27.00;nan;95521.63;5008771;28;20257;-71
2022/04/12 06:30:07;;;;;;;9.35;7.05;;;;;;;27.95;nan;95515.41;5009112;28;20202;-71
2022/04/12 06:32:36;;;;;;;10.05;7.20;;;;;;;27.99;nan;95519.34;5009391;28;20203;-71
2022/04/12 06:35:05;;;;;;;9.55;7.18;;;;;;;28.01;nan;95513.03;5009436;28;20788;-71
2022/04/12 06:37:33;;;;;;;12.73;7.30;;;;;;;27.75;nan;95514.69;5007822;28;20196;-72
2022/04/12 06:40:00;;;;;;;11.48;8.57;;;;;;;28.16;nan;95512.53;5008764;28;20200;-73
2022/04/12 06:42:27;;;;;;;12.63;9.30;;;;;;;28.51;nan;95519.59;5008143;28;20638;-70
2022/04/12 06:44:54;;;;;;;15.80;9.30;;;;;;;28.29;nan;95521.66;5009124;28;20242;-70
2022/04/12 06:47:21;;;;;;;21.38;11.20;;;;;;;27.80;nan;95524.69;5008516;28;20200;-70
2022/04/12 06:49:50;;;;;;;18.15;9.00;;;;;;;27.65;nan;95524.38;5008896;28;20204;-71
2022/04/12 06:52:19;;;;;;;18.65;8.65;;;;;;;27.99;nan;95508.91;5008799;28;20207;-71
2022/04/12 06:54:45;;;;;;;10.10;6.85;;;;;;;28.47;nan;95510.38;5007329;28;20301;-71
2022/04/12 06:57:13;;;;;;;13.15;7.18;;;;;;;27.83;nan;95514.78;5008091;28;20212;-71
2022/04/12 06:59:40;;;;;;;15.98;8.57;;;;;;;27.31;nan;95503.16;5009030;28;20204;-72
2022/04/12 07:02:07;;;;;;;14.15;7.70;;;;;;;27.75;nan;95512.06;5008164;28;20686;-71
2022/04/12 07:04:34;;;;;;;11.50;6.88;;;;;;;27.78;nan;95509.16;5008171;28;20207;-71
2022/04/12 07:07:02;;;;;;;8.88;7.25;;;;;;;27.97;nan;95503.81;5007937;28;20671;-72
2022/04/12 07:09:30;;;;;;;6.93;6.25;;;;;;;27.72;nan;95504.50;5008391;28;20277;-71
2022/04/12 07:11:59;;;;;;;12.00;7.32;;;;;;;27.73;nan;95496.53;5008346;28;20649;-72
2022/04/12 07:14:25;;;;;;;10.85;6.32;;;;;;;28.02;nan;95500.78;5007870;28;20235;-71
2022/04/12 07:16:53;;;;;;;16.45;8.65;;;;;;;27.44;nan;95501.06;5007234;28;20210;-72
2022/04/12 07:19:20;;;;;;;11.65;8.50;;;;;;;27.88;nan;95496.06;5009242;28;20287;-73
2022/04/12 07:21:47;;;;;;;7.90;5.45;;;;;;;27.80;nan;95495.97;5007770;28;20200;-71
2022/04/12 07:24:15;;;;;;;8.25;6.25;;;;;;;26.10;nan;95515.84;5007863;28;20306;-70
2022/04/12 07:26:42;;;;;;;8.32;5.80;;;;;;;24.56;nan;95500.31;5008048;28;20204;-71
2022/04/12 07:29:09;;;;;;;5.75;5.10;;;;;;;24.90;nan;95507.94;5008359;28;20643;-71
2022/04/12 07:31:36;;;;;;;8.45;4.97;;;;;;;24.39;nan;95503.47;5007573;28;21444;-70
2022/04/12 07:34:03;;;;;;;11.88;7.90;;;;;;;24.97;nan;95509.94;5007695;28;20301;-71
2022/04/12 07:36:29;;;;;;;4.15;3.78;;;;;;;25.24;nan;95506.75;5007294;28;20320;-70
2022/04/12 07:38:56;;;;;;;4.10;3.25;;;;;;;24.45;nan;95512.53;5008014;28;20277;-70
2022/04/12 07:41:25;;;;;;;3.72;2.95;;;;;;;23.59;nan;95508.13;5007610;28;20199;-71
2022/04/12 07:43:52;;;;;;;6.38;2.55;;;;;;;23.21;nan;95504.09;5008013;28;20714;-73
2022/04/12 07:46:19;;;;;;;3.03;2.83;;;;;;;23.15;nan;95511.50;5007003;28;20222;-70
2022/04/12 07:48:46;;;;;;;11.80;3.47;;;;;;;22.07;nan;95512.56;5008143;28;20594;-70
2022/04/12 07:51:13;;;;;;;2.50;2.30;;;;;;;22.17;nan;95510.97;5007653;28;20204;-72
2022/04/12 07:53:39;;;;;;;4.32;2.90;;;;;;;20.99;nan;95499.41;5007764;28;20231;-71
2022/04/12 07:56:06;;;;;;;2.75;2.55;;;;;;;20.84;nan;95500.41;5007281;28;20279;-71
2022/04/12 07:58:34;;;;;;;4.20;2.25;;;;;;;20.51;nan;95503.50;5007399;28;20211;-72
2022/04/12 08:01:01;;;;;;;3.15;2.05;;;;;;;20.12;nan;95497.38;5006881;28;20729;-71
2022/04/12 08:03:28;;;;;;;5.30;2.40;;;;;;;20.09;nan;95487.25;5007748;28;20196;-71
2022/04/12 08:05:55;;;;;;;6.22;3.42;;;;;;;20.40;nan;95495.63;5006966;28;20246;-71
2022/04/12 08:08:22;;;;;;;3.97;3.50;;;;;;;19.91;nan;95493.59;5006154;28;20801;-71
2022/04/12 08:10:49;;;;;;;7.90;3.50;;;;;;;19.55;nan;95469.16;5007495;28;20204;-71
2022/04/12 08:13:15;;;;;;;3.70;3.40;;;;;;;19.88;nan;95488.63;5006668;28;20892;-72
2022/04/12 08:15:44;;;;;;;3.22;3.03;;;;;;;19.31;nan;95493.84;5007227;28;20232;-70
2022/04/12 08:18:10;;;;;;;2.85;2.10;;;;;;;18.09;nan;95485.56;5006275;28;20222;-72
2022/04/12 08:20:37;;;;;;;3.60;2.20;;;;;;;17.84;nan;95488.66;5008133;28;20289;-70
2022/04/12 08:23:04;;;;;;;3.30;2.60;;;;;;;17.46;nan;95485.59;5007035;28;20219;-73
2022/04/12 08:25:31;;;;;;;2.33;2.17;;;;;;;17.18;nan;95487.97;5006985;28;20199;-72
2022/04/12 08:27:57;;;;;;;4.45;3.08;;;;;;;17.26;nan;95491.81;5005920;28;20289;-71
2022/04/12 08:30:25;;;;;;;2.90;2.20;;;;;;;17.52;nan;95484.44;5007019;28;20281;-71
2022/04/12 08:32:54;;;;;;;2.33;2.17;;;;;;;17.26;nan;95480.69;5007543;28;20261;-70
2022/04/12 08:35:21;;;;;;;3.25;2.88;;;;;;;17.13;nan;95487.38;5007517;28;20710;-70
2022/04/12 08:37:48;;;;;;;2.92;2.72;;;;;;;17.25;nan;95481.59;5006772;28;20203;-71
2022/04/12 08:40:18;;;;;;;2.70;2.50;;;;;;;17.68;nan;95472.44;5006484;28;20207;-73
2022/04/12 08:42:45;;;;;;;8.45;2.40;;;;;;;17.49;nan;95474.31;5007245;28;20231;-73
2022/04/12 08:45:12;;;;;;;4.60;2.90;;;;;;;17.34;nan;95468.25;5006183;28;20662;-71
2022/04/12 08:47:40;;;;;;;2.95;2.25;;;;;;;16.89;nan;95469.78;5006811;28;20265;-71
2022/04/12 08:50:10;;;;;;;4.05;2.50;;;;;;;17.16;nan;95472.63;5007312;28;20261;-73
2022/04/12 08:52:38;;;;;;;2.78;2.30;;;;;;;17.55;nan;95459.41;5007371;28;20217;-72
2022/04/12 08:55:06;;;;;;;2.03;1.92;;;;;;;18.09;nan;95461.56;5007006;28;20720;-71
2022/04/12 08:57:32;;;;;;;2.65;2.45;;;;;;;18.06;nan;95465.19;5007005;28;20196;-72
2022/04/12 08:59:59;;;;;;;5.55;2.33;;;;;;;17.90;nan;95459.22;5007626;28;20223;-74
2022/04/12 09:02:26;;;;;;;1.95;1.85;;;;;;;17.58;nan;95430.94;5006589;28;20203;-72
2022/04/12 09:04:53;;;;;;;3.90;2.40;;;;;;;17.66;nan;95458.84;5006382;28;20208;-73
2022/04/12 09:07:26;;;;;;;3.42;2.67;;;;;;;17.64;nan;95461.50;5005566;28;21497;-71
2022/04/12 09:09:54;;;;;;;3.95;1.70;;;;;;;17.48;nan;95455.50;5006967;28;20204;-73
2022/04/12 09:12:22;;;;;;;2.25;2.10;;;;;;;17.19;nan;95449.34;5006781;28;20223;-71
2022/04/12 09:14:52;;;;;;;4.65;3.45;;;;;;;17.46;nan;95438.50;5007603;28;20342;-72
2022/04/12 09:17:28;;;;;;;5.43;3.28;;;;;;;17.94;nan;95445.28;5005171;28;20212;-72
2022/04/12 09:19:55;;;;;;;3.22;3.03;;;;;;;18.22;nan;95435.09;5007747;28;20212;-73
2022/04/12 09:22:25;;;;;;;2.72;2.58;;;;;;;17.84;nan;95444.13;5010236;28;20287;-72
2022/04/12 09:24:53;;;;;;;3.42;2.38;;;;;;;17.88;nan;95441.31;5011078;28;20204;-73
2022/04/12 09:27:21;;;;;;;1.85;1.75;;;;;;;17.77;nan;95424.84;5009765;28;20204;-71
2022/04/12 09:29:50;;;;;;;2.72;2.53;;;;;;;17.68;nan;95439.84;5010425;28;20204;-71
2022/04/12 09:32:20;;;;;;;17.13;12.27;;;;;;;17.27;nan;95433.53;5009498;28;20200;-74
2022/04/12 09:34:46;;;;;;;12.38;8.35;;;;;;;17.65;nan;95422.03;5010290;28;20239;-72
2022/04/12 09:37:25;;;;;;;2.95;2.50;;;;;;;17.82;nan;95422.81;5009053;28;20626;-74
2022/04/12 09:40:04;;;;;;;3.90;1.85;;;;;;;17.76;nan;95413.72;5010046;28;20209;-72
2022/04/12 09:42:38;;;;;;;2.88;2.63;;;;;;;17.70;nan;95410.66;5010273;28;20223;-74
2022/04/12 09:45:07;;;;;;;2.53;2.33;;;;;;;17.64;nan;95406.66;5008821;28;20620;-72
2022/04/12 09:47:35;;;;;;;1.95;1.85;;;;;;;17.15;nan;95405.94;5002512;28;20256;-73
2022/04/12 09:50:02;;;;;;;1.73;1.63;;;;;;;17.14;nan;95417.13;5007406;28;20199;-72
2022/04/12 09:52:30;;;;;;;6.68;2.15;;;;;;;17.30;nan;95408.53;5007133;28;20250;-72
2022/04/12 09:54:59;;;;;;;2.78;1.88;;;;;;;17.51;nan;95406.53;5007898;28;20227;-74
2022/04/12 09:57:26;;;;;;;6.45;2.15;;;;;;;17.47;nan;95375.94;5005954;28;21162;-72
2022/04/12 09:59:56;;;;;;;4.97;2.20;;;;;;;17.79;nan;95385.28;5007840;28;20208;-71
2022/04/12 10:02:24;;;;;;;1.90;1.80;;;;;;;17.60;nan;95375.16;5006493;28;20295;-70
2022/04/12 10:05:20;;;;;;;2.72;2.38;;;;;;;17.63;nan;95389.56;5007456;28;20203;-70
2022/04/12 10:07:53;;;;;;;2.20;2.00;;;;;;;17.74;nan;95376.16;5005836;28;20212;-73
2022/04/12 10:10:20;;;;;;;6.07;2.80;;;;;;;17.88;nan;95374.44;5005403;28;20215;-74
2022/04/12 10:12:47;;;;;;;2.10;2.00;;;;;;;17.87;nan;95362.50;4987306;28;20351;-74
2022/04/12 10:15:14;;;;;;;2.67;2.47;;;;;;;17.80;nan;95360.41;5006195;28;20673;-72
2022/04/12 10:17:43;;;;;;;2.70;1.67;;;;;;;17.56;nan;95358.28;5006553;28;20253;-73
2022/04/12 10:20:11;;;;;;;3.60;2.17;;;;;;;17.78;nan;95351.94;5006451;28;20203;-74
2022/04/12 10:22:39;;;;;;;2.75;1.75;;;;;;;17.62;nan;95352.75;5006835;28;20724;-71
2022/04/12 10:25:09;;;;;;;2.90;1.83;;;;;;;17.96;nan;95350.88;5006899;28;20278;-73
2022/04/12 10:27:37;;;;;;;1.60;1.50;;;;;;;18.13;nan;95349.88;5005915;28;20269;-73
2022/04/12 10:30:22;;;;;;;1.38;1.27;;;;;;;18.24;nan;95329.53;5005985;28;20270;-70
2022/04/12 10:32:59;;;;;;;1.95;1.67;;;;;;;18.28;nan;95336.97;5010597;28;20289;-74
2022/04/12 10:35:26;;;;;;;1.63;1.52;;;;;;;18.21;nan;95330.53;5026282;28;20211;-73
2022/04/12 10:37:56;;;;;;;1.95;1.83;;;;;;;18.00;nan;95327.47;5027954;28;20254;-72
2022/04/12 10:40:26;;;;;;;1.75;1.65;;;;;;;18.04;nan;95320.41;5018898;28;20204;-72
2022/04/12 10:42:55;;;;;;;2.92;1.80;;;;;;;18.00;nan;95306.91;5010269;28;20207;-72
2022/04/12 10:45:30;;;;;;;2.08;1.95;;;;;;;18.11;nan;95324.25;5011583;28;20286;-71
2022/04/12 10:47:58;;;;;;;3.75;2.22;;;;;;;18.08;nan;95319.28;5013677;28;20196;-73
2022/04/12 10:50:25;;;;;;;45.80;25.23;;;;;;;18.16;nan;95316.28;5028551;28;20207;-72
2022/04/12 10:52:52;;;;;;;2.92;2.60;;;;;;;18.11;nan;95308.00;5013585;28;20200;-71
2022/04/12 10:55:22;;;;;;;2.70;2.50;;;;;;;18.05;nan;95314.34;5005896;28;20327;-71
2022/04/12 10:57:51;;;;;;;1.88;1.77;;;;;;;18.21;nan;95306.53;5006572;28;20687;-69
2022/04/12 11:00:19;;;;;;;3.78;2.38;;;;;;;17.87;nan;95308.53;5006766;28;20197;-70
2022/04/12 11:02:47;;;;;;;1.83;1.65;;;;;;;17.96;nan;95313.13;5004583;28;20200;-71
2022/04/12 11:05:52;;;;;;;1.77;1.30;;;;;;;18.00;nan;95311.22;5004747;28;20746;-70
2022/04/12 11:08:43;;;;;;;1.33;1.30;;;;;;;17.64;nan;95294.44;5006819;28;20200;-72
2022/04/12 11:11:11;;;;;;;1.67;1.58;;;;;;;17.50;nan;95291.81;5007682;28;20678;-70
2022/04/12 11:13:39;;;;;;;1.90;1.70;;;;;;;17.25;nan;95281.25;5016032;28;20230;-71
2022/04/12 11:16:09;;;;;;;2.75;1.95;;;;;;;17.49;nan;95285.00;5007595;28;20243;-72
2022/04/12 11:18:50;;;;;;;2.85;1.67;;;;;;;17.57;nan;95282.81;5009293;28;20263;-71
2022/04/12 11:21:18;;;;;;;3.10;1.45;;;;;;;17.53;nan;95296.78;5011383;28;20255;-70
2022/04/12 11:23:46;;;;;;;3.42;1.40;;;;;;;17.52;nan;95289.97;5011946;28;20269;-71
2022/04/12 11:26:28;;;;;;;1.55;1.45;;;;;;;17.62;nan;95283.38;5011202;28;20193;-71
2022/04/12 11:28:58;;;;;;;1.60;1.50;;;;;;;17.70;nan;95277.84;5010997;28;20204;-71
2022/04/12 11:31:25;;;;;;;1.13;1.13;;;;;;;17.25;nan;95270.97;5011885;28;20199;-70
2022/04/12 11:33:52;;;;;;;2.10;1.60;;;;;;;17.19;nan;95268.75;5011037;28;20242;-71
2022/04/12 11:36:19;;;;;;;2.25;1.50;;;;;;;17.40;nan;95252.13;5011140;28;20236;-70
2022/04/12 11:38:46;;;;;;;1.45;1.38;;;;;;;17.78;nan;95256.84;5012992;28;20204;-72
2022/04/12 11:41:12;;;;;;;2.65;1.92;;;;;;;17.85;nan;95260.69;5031032;28;20187;-71
2022/04/12 11:43:39;;;;;;;2.25;1.38;;;;;;;17.59;nan;95250.13;5028508;28;20210;-71
2022/04/12 11:46:08;;;;;;;1.75;1.65;;;;;;;17.65;nan;95254.13;5010631;28;20284;-70
2022/04/12 11:48:34;;;;;;;2.53;1.48;;;;;;;17.58;nan;95238.19;5010965;28;20200;-73
2022/04/12 11:51:05;;;;;;;3.75;2.00;;;;;;;17.72;nan;95241.75;5010855;28;20571;-71
2022/04/12 11:53:34;;;;;;;1.55;1.40;;;;;;;18.00;nan;95240.03;5011290;28;20220;-71
2022/04/12 11:56:02;;;;;;;1.88;1.30;;;;;;;17.99;nan;95237.56;5010679;28;20232;-72
2022/04/12 11:58:30;;;;;;;1.70;1.60;;;;;;;17.94;nan;95234.44;5011362;28;20200;-70